createdAt,value
2023-05-12T00:02:16.335Z,1.60
2023-05-12T00:06:18.379Z,1.65
2023-05-12T00:10:21.004Z,1.83
2023-05-12T00:14:23.346Z,1.70
2023-05-12T00:18:26.094Z,1.83
2023-05-12T00:22:28.101Z,1.85
2023-05-12T00:26:30.120Z,2.08
2023-05-12T00:30:32.146Z,1.90
2023-05-12T00:34:34.248Z,2.40
2023-05-12T00:38:37.335Z,2.20
2023-05-12T00:42:39.390Z,2.03
2023-05-12T00:46:41.754Z,2.00
2023-05-12T00:50:44.208Z,1.58
2023-05-12T00:54:47.265Z,1.80
2023-05-12T00:58:49.367Z,1.40
2023-05-12T01:02:52.600Z,1.77
2023-05-12T01:07:12.604Z,1.55
2023-05-12T01:11:14.927Z,1.50
2023-05-12T01:15:18.371Z,1.20
2023-05-12T01:19:38.431Z,1.40
2023-05-12T01:23:46.627Z,1.50
2023-05-12T01:31:51.751Z,1.20
2023-05-12T01:35:53.926Z,1.50
2023-05-12T01:39:56.031Z,1.20
2023-05-12T01:43:58.058Z,1.20
2023-05-12T01:48:00.880Z,0.80
2023-05-12T01:52:03.448Z,0.90
2023-05-12T01:56:06.965Z,1.20
2023-05-12T02:00:10.956Z,1.10
2023-05-12T02:04:16.130Z,0.85
2023-05-12T02:08:21.503Z,0.57
2023-05-12T02:12:24.190Z,0.45
2023-05-12T02:16:26.700Z,0.38
2023-05-12T02:20:29.668Z,0.20
2023-05-12T02:24:31.648Z,0.20
2023-05-12T02:28:33.756Z,0.20
2023-05-12T02:32:35.959Z,0.10
2023-05-12T02:36:40.831Z,0.10
2023-05-12T02:40:42.995Z,0.28
2023-05-12T02:44:46.230Z,0.50
2023-05-12T02:48:48.410Z,0.70
2023-05-12T02:52:50.938Z,0.98
2023-05-12T02:56:53.300Z,0.95
2023-05-12T03:01:03.349Z,1.20
2023-05-12T03:05:11.949Z,1.50
2023-05-12T03:09:14.219Z,1.90
2023-05-12T03:13:16.288Z,2.10
2023-05-12T03:17:18.372Z,2.03
2023-05-12T03:21:20.620Z,2.30
2023-05-12T03:25:22.666Z,2.25
2023-05-12T03:29:24.903Z,2.85
2023-05-12T03:33:26.977Z,2.70
2023-05-12T03:37:29.092Z,2.33
2023-05-12T03:41:31.245Z,2.55
2023-05-12T03:45:33.372Z,2.50
2023-05-12T03:49:35.385Z,2.95
2023-05-12T03:53:37.438Z,3.35
2023-05-12T03:57:39.523Z,3.00
2023-05-12T04:01:41.694Z,3.70
2023-05-12T04:05:43.782Z,3.22
2023-05-12T04:09:46.571Z,3.90
2023-05-12T04:13:48.646Z,3.60
2023-05-12T04:17:51.071Z,4.10
2023-05-12T04:21:53.627Z,4.10
2023-05-12T04:25:56.420Z,4.35
2023-05-12T04:29:58.557Z,4.30
2023-05-12T04:34:01.144Z,4.03
2023-05-12T04:38:04.444Z,3.92
2023-05-12T04:42:07.054Z,3.85
2023-05-12T04:46:10.419Z,3.85
2023-05-12T04:50:13.624Z,3.75
2023-05-12T04:54:16.128Z,3.58
2023-05-12T04:58:18.285Z,3.58
2023-05-12T05:02:21.064Z,3.30
2023-05-12T05:06:24.034Z,3.45
2023-05-12T05:10:26.296Z,3.15
2023-05-12T05:14:28.441Z,3.40
2023-05-12T05:18:31.950Z,3.30
2023-05-12T05:22:34.069Z,2.90
2023-05-12T05:26:36.357Z,3.28
2023-05-12T05:30:38.931Z,3.40
2023-05-12T05:34:41.832Z,3.40
2023-05-12T05:38:43.962Z,2.90
2023-05-12T05:42:46.052Z,2.97
2023-05-12T05:46:48.360Z,3.05
2023-05-12T05:50:51.964Z,2.92
2023-05-12T05:54:54.614Z,2.90
2023-05-12T05:59:02.450Z,3.10
2023-05-12T06:03:05.033Z,2.88
2023-05-12T06:07:07.203Z,2.80
2023-05-12T06:11:09.219Z,2.78
2023-05-12T06:15:11.663Z,2.72
2023-05-12T06:19:13.813Z,2.58
2023-05-12T06:23:16.301Z,2.55
2023-05-12T06:27:18.528Z,2.83
2023-05-12T06:31:22.217Z,2.83
2023-05-12T06:35:24.258Z,2.90
2023-05-12T06:39:26.274Z,2.88
2023-05-12T06:43:28.287Z,2.50
2023-05-12T06:47:30.583Z,2.53
2023-05-12T06:51:33.945Z,2.72
2023-05-12T06:55:36.022Z,2.28
2023-05-12T06:59:38.088Z,2.50
2023-05-12T07:03:40.302Z,2.30
2023-05-12T07:07:42.351Z,2.08
2023-05-12T07:11:44.677Z,1.92
2023-05-12T07:15:46.787Z,2.30
2023-05-12T07:19:48.880Z,2.58
2023-05-12T07:23:50.888Z,2.60
2023-05-12T07:27:53.054Z,2.60
2023-05-12T07:31:55.322Z,3.20
2023-05-12T07:35:57.429Z,2.78
2023-05-12T07:39:59.538Z,2.88
2023-05-12T07:44:02.246Z,2.88
2023-05-12T07:48:04.475Z,3.15
2023-05-12T07:52:06.623Z,2.95
2023-05-12T07:56:08.669Z,2.70
2023-05-12T08:00:11.405Z,3.05
2023-05-12T08:04:16.530Z,2.85
2023-05-12T08:08:18.625Z,2.88
2023-05-12T08:12:20.879Z,2.60
2023-05-12T08:16:23.202Z,2.28
2023-05-12T08:20:25.237Z,2.38
2023-05-12T08:24:27.295Z,2.40
2023-05-12T08:28:29.425Z,2.42
2023-05-12T08:32:32.114Z,2.58
2023-05-12T08:36:34.185Z,2.40
2023-05-12T08:40:54.379Z,2.47
2023-05-12T08:44:59.149Z,2.95
2023-05-12T08:49:03.892Z,2.65
2023-05-12T08:53:10.482Z,2.60
2023-05-12T08:57:12.534Z,3.03
2023-05-12T09:01:16.249Z,2.63
2023-05-12T09:05:18.970Z,3.17
2023-05-12T09:09:21.668Z,2.65
2023-05-12T09:13:40.312Z,2.30
2023-05-12T09:17:42.407Z,2.85
2023-05-12T09:21:44.436Z,2.35
2023-05-12T09:25:47.119Z,2.58
2023-05-12T09:29:59.325Z,2.53
2023-05-12T09:34:07.868Z,3.00
2023-05-12T09:38:12.259Z,2.40
2023-05-12T09:42:15.762Z,2.72
2023-05-12T09:46:17.919Z,2.88
2023-05-12T09:50:20.744Z,2.92
2023-05-12T09:54:30.925Z,2.90
2023-05-12T09:58:33.985Z,2.90
2023-05-12T10:02:39.744Z,3.10
2023-05-12T10:06:43.061Z,2.90
2023-05-12T10:10:48.579Z,3.38
2023-05-12T10:14:51.719Z,3.53
2023-05-12T10:18:54.853Z,2.75
2023-05-12T10:22:59.068Z,3.55
2023-05-12T10:27:03.222Z,3.38
2023-05-12T10:31:07.709Z,3.40
2023-05-12T10:35:11.086Z,3.60
2023-05-12T10:39:15.451Z,3.47
2023-05-12T10:43:28.749Z,3.75
2023-05-12T10:47:37.707Z,3.63
2023-05-12T10:51:43.165Z,3.78
2023-05-12T10:55:50.090Z,4.00
2023-05-12T11:04:11.175Z,4.00
2023-05-12T11:08:14.229Z,3.72
2023-05-12T11:12:16.990Z,4.13
2023-05-12T11:16:20.665Z,3.97
2023-05-12T11:20:28.077Z,3.80
2023-05-12T11:24:31.671Z,3.42
2023-05-12T11:28:40.764Z,3.42
2023-05-12T11:32:43.789Z,2.97
2023-05-12T11:36:46.526Z,2.95
2023-05-12T11:40:48.573Z,2.25
2023-05-12T11:44:50.736Z,2.40
2023-05-12T11:49:00.182Z,2.50
2023-05-12T11:53:02.213Z,2.50
2023-05-12T11:57:05.013Z,2.85
2023-05-12T12:01:11.737Z,3.22
2023-05-12T12:05:18.451Z,2.90
2023-05-12T12:09:30.845Z,2.30
2023-05-12T12:13:32.943Z,2.20
2023-05-12T12:17:35.014Z,2.13
2023-05-12T12:21:37.048Z,2.10
2023-05-12T12:25:39.082Z,1.80
2023-05-12T12:29:41.169Z,1.48
2023-05-12T12:33:43.375Z,1.30
2023-05-12T12:37:51.827Z,2.00
2023-05-12T12:41:54.130Z,1.80
2023-05-12T12:45:56.261Z,1.75
2023-05-12T12:49:58.756Z,1.95
2023-05-12T12:54:00.824Z,1.77
2023-05-12T12:58:02.815Z,1.60
2023-05-12T13:02:04.990Z,2.00
2023-05-12T13:06:07.183Z,1.80
2023-05-12T13:10:10.016Z,1.80
2023-05-12T13:14:12.083Z,1.40
2023-05-12T13:18:14.113Z,1.50
2023-05-12T13:22:16.243Z,1.48
2023-05-12T13:26:18.256Z,1.40
2023-05-12T13:30:20.633Z,1.40
2023-05-12T13:34:22.656Z,1.30
2023-05-12T13:38:24.747Z,1.20
2023-05-12T13:42:26.848Z,1.50
2023-05-12T13:46:28.972Z,1.20
2023-05-12T13:50:33.304Z,1.30
2023-05-12T13:54:35.648Z,1.10
2023-05-12T13:58:37.725Z,1.40
2023-05-12T14:02:39.865Z,1.13
2023-05-12T14:06:42.262Z,1.20
2023-05-12T14:10:44.997Z,1.30
2023-05-12T14:14:49.906Z,1.30
2023-05-12T14:18:52.071Z,1.27
2023-05-12T14:22:54.199Z,1.40
2023-05-12T14:26:56.409Z,1.55
2023-05-12T14:30:58.473Z,1.20
2023-05-12T14:35:00.888Z,1.30
2023-05-12T14:39:03.085Z,1.20
2023-05-12T14:43:05.250Z,1.27
2023-05-12T14:47:09.098Z,1.20
2023-05-12T14:51:11.258Z,1.23
2023-05-12T14:55:13.851Z,1.10
2023-05-12T14:59:15.875Z,1.23
2023-05-12T15:03:19.564Z,1.10
2023-05-12T15:07:22.502Z,1.00
2023-05-12T15:11:24.650Z,1.98
2023-05-12T15:15:26.769Z,1.40
2023-05-12T15:19:28.868Z,2.03
2023-05-12T15:23:31.025Z,5.78
2023-05-12T15:27:33.271Z,3.10
2023-05-12T15:31:35.733Z,2.17
2023-05-12T15:35:39.388Z,1.70
2023-05-12T15:39:41.522Z,1.75
2023-05-12T15:43:43.611Z,1.70
2023-05-12T15:47:45.762Z,1.30
2023-05-12T15:51:47.891Z,1.10
2023-05-12T15:55:59.086Z,1.42
2023-05-12T16:00:02.233Z,1.13
2023-05-12T16:04:14.978Z,1.20
2023-05-12T16:08:17.284Z,1.20
2023-05-12T16:12:19.252Z,1.40
2023-05-12T16:16:21.340Z,1.40
2023-05-12T16:20:23.506Z,1.40
2023-05-12T16:24:28.343Z,1.70
2023-05-12T16:28:31.948Z,1.58
2023-05-12T16:32:34.012Z,1.73
2023-05-12T16:36:36.243Z,1.55
2023-05-12T16:40:38.241Z,1.90
2023-05-12T16:44:40.284Z,1.65
2023-05-12T16:48:42.353Z,1.67
2023-05-12T16:52:44.377Z,1.80
2023-05-12T16:56:47.452Z,1.50
2023-05-12T17:00:49.649Z,1.50
2023-05-12T17:04:51.656Z,1.50
2023-05-12T17:08:53.732Z,1.70
2023-05-12T17:12:55.781Z,1.88
2023-05-12T17:16:57.878Z,2.60
2023-05-12T17:20:59.906Z,1.80
2023-05-12T17:25:01.877Z,1.77
2023-05-12T17:29:04.017Z,1.73
2023-05-12T17:33:07.598Z,1.80
2023-05-12T17:37:09.651Z,2.80
2023-05-12T17:41:11.793Z,2.00
2023-05-12T17:45:14.358Z,1.95
2023-05-12T17:49:16.486Z,2.05
2023-05-12T17:53:18.793Z,2.08
2023-05-12T17:57:20.970Z,2.15
2023-05-12T18:01:23.049Z,1.92
2023-05-12T18:05:25.131Z,2.30
2023-05-12T18:09:28.589Z,1.90
2023-05-12T18:13:30.970Z,2.20
2023-05-12T18:17:33.137Z,1.85
2023-05-12T18:21:35.791Z,2.08
2023-05-12T18:25:37.910Z,1.83
2023-05-12T18:29:39.970Z,1.88
2023-05-12T18:33:41.975Z,1.90
2023-05-12T18:37:44.282Z,2.17
2023-05-12T18:41:46.352Z,2.00
2023-05-12T18:45:48.936Z,2.65
2023-05-12T18:49:50.960Z,2.70
2023-05-12T18:53:53.154Z,2.45
2023-05-12T18:57:55.200Z,2.30
2023-05-12T19:01:57.249Z,2.05
2023-05-12T19:05:59.256Z,2.30
2023-05-12T19:10:01.230Z,2.42
2023-05-12T19:14:03.253Z,2.30
2023-05-12T19:18:05.448Z,2.17
2023-05-12T19:22:07.660Z,2.17
2023-05-12T19:26:10.927Z,2.03
2023-05-12T19:30:14.236Z,2.47
2023-05-12T19:34:16.611Z,2.47
2023-05-12T19:38:19.340Z,2.60
2023-05-12T19:42:21.504Z,2.40
2023-05-12T19:46:23.737Z,2.30
2023-05-12T19:50:26.394Z,2.50
2023-05-12T19:54:28.402Z,2.55
2023-05-12T19:58:30.527Z,2.45
2023-05-12T20:02:32.787Z,2.47
2023-05-12T20:06:35.058Z,2.10
2023-05-12T20:10:37.464Z,2.70
2023-05-12T20:14:39.543Z,2.90
2023-05-12T20:18:41.636Z,2.47
2023-05-12T20:22:44.267Z,2.20
2023-05-12T20:26:46.325Z,3.00
2023-05-12T20:30:48.355Z,2.63
2023-05-12T20:34:50.385Z,3.00
2023-05-12T20:38:52.451Z,2.90
2023-05-12T20:42:54.459Z,2.47
2023-05-12T20:46:56.537Z,2.45
2023-05-12T20:50:58.741Z,3.00
2023-05-12T20:55:00.954Z,2.60
2023-05-12T20:59:02.964Z,2.70
2023-05-12T21:03:05.980Z,2.50
2023-05-12T21:07:08.013Z,2.95
2023-05-12T21:11:17.561Z,2.65
2023-05-12T21:15:19.751Z,2.85
2023-05-12T21:19:21.795Z,2.75
2023-05-12T21:23:23.864Z,3.10
2023-05-12T21:27:25.873Z,2.88
2023-05-12T21:31:28.025Z,3.60
2023-05-12T21:35:30.153Z,3.05
2023-05-12T21:39:32.171Z,2.83
2023-05-12T21:43:34.255Z,2.97
2023-05-12T21:47:36.380Z,2.42
2023-05-12T21:51:38.415Z,3.05
2023-05-12T21:55:41.064Z,3.40
2023-05-12T21:59:43.092Z,3.45
2023-05-12T22:03:45.388Z,3.20
2023-05-12T22:07:48.173Z,3.38
2023-05-12T22:11:50.488Z,3.13
2023-05-12T22:15:53.383Z,2.55
2023-05-12T22:19:55.649Z,3.10
2023-05-12T22:23:57.849Z,3.17
2023-05-12T22:27:59.857Z,3.28
2023-05-12T22:32:01.894Z,3.17
2023-05-12T22:36:04.097Z,2.72
2023-05-12T22:40:07.091Z,2.90
2023-05-12T22:44:09.117Z,3.20
2023-05-12T22:48:11.139Z,2.80
2023-05-12T22:52:13.152Z,2.60
2023-05-12T22:56:15.215Z,2.67
2023-05-12T23:00:17.598Z,2.70
2023-05-12T23:04:19.745Z,2.83
2023-05-12T23:08:22.035Z,3.03
2023-05-12T23:12:24.050Z,2.70
2023-05-12T23:16:26.633Z,2.60
2023-05-12T23:20:28.817Z,2.50
2023-05-12T23:24:31.161Z,2.60
2023-05-12T23:28:33.240Z,2.58
2023-05-12T23:32:35.641Z,2.53
2023-05-12T23:36:37.955Z,2.63
2023-05-12T23:40:40.019Z,2.97
2023-05-12T23:44:42.089Z,3.00
2023-05-12T23:48:44.100Z,3.08
2023-05-12T23:52:46.289Z,3.22
2023-05-12T23:56:48.363Z,2.90
